sensor_id;sensor_type;location;lat;lon;timestamp;P1;durP1;ratioP1;P2;durP2;ratioP2
35909;SDS011;22004;49.120;-0.200;2023-12-07T00:01:17;29.75;;;15.65;;
35909;SDS011;22004;49.120;-0.200;2023-12-07T00:03:42;30.60;;;16.88;;
35909;SDS011;22004;49.120;-0.200;2023-12-07T00:06:08;28.75;;;17.00;;
35909;SDS011;22004;49.120;-0.200;2023-12-07T00:08:33;25.35;;;13.50;;
35909;SDS011;22004;49.120;-0.200;2023-12-07T00:10:58;27.48;;;15.60;;
35909;SDS011;22004;49.120;-0.200;2023-12-07T00:13:23;30.35;;;15.60;;
35909;SDS011;22004;49.120;-0.200;2023-12-07T00:15:49;20.48;;;13.00;;
35909;SDS011;22004;49.120;-0.200;2023-12-07T00:18:14;23.52;;;13.60;;
35909;SDS011;22004;49.120;-0.200;2023-12-07T00:20:40;22.67;;;13.07;;
35909;SDS011;22004;49.120;-0.200;2023-12-07T00:23:05;20.35;;;12.40;;
35909;SDS011;22004;49.120;-0.200;2023-12-07T00:25:30;22.65;;;13.82;;
35909;SDS011;22004;49.120;-0.200;2023-12-07T00:27:56;28.58;;;16.45;;
35909;SDS011;22004;49.120;-0.200;2023-12-07T00:30:21;20.23;;;13.18;;
35909;SDS011;22004;49.120;-0.200;2023-12-07T00:32:46;19.85;;;12.38;;
35909;SDS011;22004;49.120;-0.200;2023-12-07T00:35:12;20.88;;;11.80;;
35909;SDS011;22004;49.120;-0.200;2023-12-07T00:37:38;19.75;;;11.18;;
35909;SDS011;22004;49.120;-0.200;2023-12-07T00:40:04;20.58;;;13.13;;
35909;SDS011;22004;49.120;-0.200;2023-12-07T00:42:30;27.02;;;14.93;;
35909;SDS011;22004;49.120;-0.200;2023-12-07T00:44:56;20.33;;;12.57;;
35909;SDS011;22004;49.120;-0.200;2023-12-07T00:47:21;20.70;;;12.57;;
35909;SDS011;22004;49.120;-0.200;2023-12-07T00:49:47;23.63;;;12.82;;
35909;SDS011;22004;49.120;-0.200;2023-12-07T00:52:12;24.52;;;12.70;;
35909;SDS011;22004;49.120;-0.200;2023-12-07T00:54:38;19.15;;;11.30;;
35909;SDS011;22004;49.120;-0.200;2023-12-07T00:57:04;25.15;;;12.20;;
35909;SDS011;22004;49.120;-0.200;2023-12-07T00:59:29;27.00;;;14.50;;
35909;SDS011;22004;49.120;-0.200;2023-12-07T01:01:59;20.67;;;11.85;;
35909;SDS011;22004;49.120;-0.200;2023-12-07T01:04:26;22.27;;;12.20;;
35909;SDS011;22004;49.120;-0.200;2023-12-07T01:06:51;19.15;;;12.43;;
35909;SDS011;22004;49.120;-0.200;2023-12-07T01:09:17;21.50;;;13.50;;
35909;SDS011;22004;49.120;-0.200;2023-12-07T01:11:42;27.80;;;14.70;;
35909;SDS011;22004;49.120;-0.200;2023-12-07T01:14:08;20.70;;;12.63;;
35909;SDS011;22004;49.120;-0.200;2023-12-07T01:16:33;21.85;;;13.55;;
35909;SDS011;22004;49.120;-0.200;2023-12-07T01:18:58;18.45;;;11.60;;
35909;SDS011;22004;49.120;-0.200;2023-12-07T01:21:24;23.55;;;13.20;;
35909;SDS011;22004;49.120;-0.200;2023-12-07T01:23:49;25.95;;;13.57;;
35909;SDS011;22004;49.120;-0.200;2023-12-07T01:26:14;20.08;;;12.05;;
35909;SDS011;22004;49.120;-0.200;2023-12-07T01:28:40;27.45;;;14.85;;
35909;SDS011;22004;49.120;-0.200;2023-12-07T01:31:05;19.33;;;11.25;;
35909;SDS011;22004;49.120;-0.200;2023-12-07T01:33:30;20.20;;;12.57;;
35909;SDS011;22004;49.120;-0.200;2023-12-07T01:35:56;19.95;;;11.70;;
35909;SDS011;22004;49.120;-0.200;2023-12-07T01:38:21;18.63;;;11.80;;
35909;SDS011;22004;49.120;-0.200;2023-12-07T01:40:47;22.42;;;13.10;;
35909;SDS011;22004;49.120;-0.200;2023-12-07T01:43:12;25.75;;;13.65;;
35909;SDS011;22004;49.120;-0.200;2023-12-07T01:45:37;18.83;;;11.35;;
35909;SDS011;22004;49.120;-0.200;2023-12-07T01:48:03;18.02;;;11.57;;
35909;SDS011;22004;49.120;-0.200;2023-12-07T01:50:29;20.70;;;11.20;;
35909;SDS011;22004;49.120;-0.200;2023-12-07T01:52:57;22.23;;;11.95;;
35909;SDS011;22004;49.120;-0.200;2023-12-07T01:55:28;16.23;;;10.73;;
35909;SDS011;22004;49.120;-0.200;2023-12-07T01:57:57;17.55;;;11.30;;
35909;SDS011;22004;49.120;-0.200;2023-12-07T02:00:22;19.10;;;11.07;;
35909;SDS011;22004;49.120;-0.200;2023-12-07T02:02:47;16.73;;;10.55;;
35909;SDS011;22004;49.120;-0.200;2023-12-07T02:05:14;18.42;;;10.52;;
35909;SDS011;22004;49.120;-0.200;2023-12-07T02:07:42;19.77;;;11.25;;
35909;SDS011;22004;49.120;-0.200;2023-12-07T02:10:09;18.83;;;10.30;;
35909;SDS011;22004;49.120;-0.200;2023-12-07T02:12:35;18.45;;;10.52;;
35909;SDS011;22004;49.120;-0.200;2023-12-07T02:15:01;15.80;;;10.23;;
35909;SDS011;22004;49.120;-0.200;2023-12-07T02:20:24;37.28;;;16.95;;
35909;SDS011;22004;49.120;-0.200;2023-12-07T02:23:01;23.70;;;13.10;;
35909;SDS011;22004;49.120;-0.200;2023-12-07T02:25:32;32.53;;;17.17;;
35909;SDS011;22004;49.120;-0.200;2023-12-07T02:28:17;16.13;;;9.98;;
35909;SDS011;22004;49.120;-0.200;2023-12-07T02:30:43;21.20;;;11.75;;
35909;SDS011;22004;49.120;-0.200;2023-12-07T02:33:09;24.27;;;12.90;;
35909;SDS011;22004;49.120;-0.200;2023-12-07T02:35:35;24.95;;;12.48;;
35909;SDS011;22004;49.120;-0.200;2023-12-07T02:38:01;20.35;;;11.73;;
35909;SDS011;22004;49.120;-0.200;2023-12-07T02:40:28;20.45;;;12.00;;
35909;SDS011;22004;49.120;-0.200;2023-12-07T02:42:55;22.70;;;11.65;;
35909;SDS011;22004;49.120;-0.200;2023-12-07T02:45:21;29.10;;;16.95;;
35909;SDS011;22004;49.120;-0.200;2023-12-07T02:47:46;20.02;;;10.93;;
35909;SDS011;22004;49.120;-0.200;2023-12-07T02:50:12;17.70;;;10.57;;
35909;SDS011;22004;49.120;-0.200;2023-12-07T02:52:38;20.48;;;12.60;;
35909;SDS011;22004;49.120;-0.200;2023-12-07T02:55:04;18.52;;;10.93;;
35909;SDS011;22004;49.120;-0.200;2023-12-07T02:57:30;23.65;;;11.65;;
35909;SDS011;22004;49.120;-0.200;2023-12-07T02:59:56;23.10;;;12.88;;
35909;SDS011;22004;49.120;-0.200;2023-12-07T03:02:21;26.80;;;14.50;;
35909;SDS011;22004;49.120;-0.200;2023-12-07T03:04:47;28.75;;;15.50;;
35909;SDS011;22004;49.120;-0.200;2023-12-07T03:07:12;26.58;;;13.55;;
35909;SDS011;22004;49.120;-0.200;2023-12-07T03:09:38;22.83;;;12.25;;
35909;SDS011;22004;49.120;-0.200;2023-12-07T03:12:03;19.60;;;12.18;;
35909;SDS011;22004;49.120;-0.200;2023-12-07T03:14:29;17.88;;;11.05;;
35909;SDS011;22004;49.120;-0.200;2023-12-07T03:16:54;22.13;;;13.90;;
35909;SDS011;22004;49.120;-0.200;2023-12-07T03:19:19;21.98;;;11.05;;
35909;SDS011;22004;49.120;-0.200;2023-12-07T03:21:45;20.02;;;11.23;;
35909;SDS011;22004;49.120;-0.200;2023-12-07T03:24:10;20.05;;;12.30;;
35909;SDS011;22004;49.120;-0.200;2023-12-07T03:26:36;24.48;;;11.68;;
35909;SDS011;22004;49.120;-0.200;2023-12-07T03:29:02;24.42;;;14.35;;
35909;SDS011;22004;49.120;-0.200;2023-12-07T03:31:28;19.80;;;11.18;;
35909;SDS011;22004;49.120;-0.200;2023-12-07T03:33:54;17.85;;;11.70;;
35909;SDS011;22004;49.120;-0.200;2023-12-07T03:36:20;30.90;;;15.13;;
35909;SDS011;22004;49.120;-0.200;2023-12-07T03:38:45;22.20;;;12.98;;
35909;SDS011;22004;49.120;-0.200;2023-12-07T03:41:11;22.65;;;13.55;;
35909;SDS011;22004;49.120;-0.200;2023-12-07T03:43:36;19.55;;;10.07;;
35909;SDS011;22004;49.120;-0.200;2023-12-07T03:46:05;17.85;;;11.18;;
35909;SDS011;22004;49.120;-0.200;2023-12-07T03:48:31;21.25;;;10.77;;
35909;SDS011;22004;49.120;-0.200;2023-12-07T03:50:57;19.02;;;10.07;;
35909;SDS011;22004;49.120;-0.200;2023-12-07T03:53:22;22.80;;;12.15;;
35909;SDS011;22004;49.120;-0.200;2023-12-07T03:55:48;24.33;;;12.73;;
35909;SDS011;22004;49.120;-0.200;2023-12-07T03:58:13;20.83;;;11.73;;
35909;SDS011;22004;49.120;-0.200;2023-12-07T04:00:38;17.67;;;10.27;;
35909;SDS011;22004;49.120;-0.200;2023-12-07T04:03:04;21.13;;;9.02;;
35909;SDS011;22004;49.120;-0.200;2023-12-07T04:05:30;17.88;;;10.32;;
35909;SDS011;22004;49.120;-0.200;2023-12-07T04:07:55;18.70;;;8.98;;
35909;SDS011;22004;49.120;-0.200;2023-12-07T04:10:20;15.50;;;9.10;;
35909;SDS011;22004;49.120;-0.200;2023-12-07T04:12:46;15.30;;;9.05;;
35909;SDS011;22004;49.120;-0.200;2023-12-07T04:15:11;17.67;;;9.40;;
35909;SDS011;22004;49.120;-0.200;2023-12-07T04:17:36;15.15;;;8.90;;
35909;SDS011;22004;49.120;-0.200;2023-12-07T04:20:02;15.25;;;9.77;;
35909;SDS011;22004;49.120;-0.200;2023-12-07T04:22:27;15.55;;;8.98;;
35909;SDS011;22004;49.120;-0.200;2023-12-07T04:24:54;15.20;;;9.10;;
35909;SDS011;22004;49.120;-0.200;2023-12-07T04:27:19;12.98;;;7.65;;
35909;SDS011;22004;49.120;-0.200;2023-12-07T04:29:44;15.93;;;9.63;;
35909;SDS011;22004;49.120;-0.200;2023-12-07T04:32:10;14.63;;;7.88;;
35909;SDS011;22004;49.120;-0.200;2023-12-07T04:34:35;13.23;;;7.85;;
35909;SDS011;22004;49.120;-0.200;2023-12-07T04:37:01;15.60;;;8.23;;
35909;SDS011;22004;49.120;-0.200;2023-12-07T04:39:27;19.13;;;9.65;;
35909;SDS011;22004;49.120;-0.200;2023-12-07T04:41:53;16.42;;;9.02;;
35909;SDS011;22004;49.120;-0.200;2023-12-07T04:44:19;17.92;;;9.02;;
35909;SDS011;22004;49.120;-0.200;2023-12-07T04:46:44;14.43;;;7.93;;
35909;SDS011;22004;49.120;-0.200;2023-12-07T04:49:09;21.30;;;10.57;;
35909;SDS011;22004;49.120;-0.200;2023-12-07T04:51:35;15.77;;;8.45;;
35909;SDS011;22004;49.120;-0.200;2023-12-07T04:54:00;16.30;;;8.02;;
35909;SDS011;22004;49.120;-0.200;2023-12-07T04:56:26;12.90;;;8.25;;
35909;SDS011;22004;49.120;-0.200;2023-12-07T04:58:51;14.57;;;7.85;;
35909;SDS011;22004;49.120;-0.200;2023-12-07T05:01:16;17.80;;;8.70;;
35909;SDS011;22004;49.120;-0.200;2023-12-07T05:03:43;14.82;;;7.75;;
35909;SDS011;22004;49.120;-0.200;2023-12-07T05:06:09;11.38;;;7.10;;
35909;SDS011;22004;49.120;-0.200;2023-12-07T05:08:35;12.95;;;7.20;;
35909;SDS011;22004;49.120;-0.200;2023-12-07T05:11:00;15.90;;;6.80;;
35909;SDS011;22004;49.120;-0.200;2023-12-07T05:13:25;11.52;;;7.10;;
35909;SDS011;22004;49.120;-0.200;2023-12-07T05:15:51;11.65;;;6.88;;
35909;SDS011;22004;49.120;-0.200;2023-12-07T05:18:16;11.13;;;6.32;;
35909;SDS011;22004;49.120;-0.200;2023-12-07T05:20:41;9.73;;;6.15;;
35909;SDS011;22004;49.120;-0.200;2023-12-07T05:23:08;14.43;;;6.57;;
35909;SDS011;22004;49.120;-0.200;2023-12-07T05:25:33;13.82;;;6.57;;
35909;SDS011;22004;49.120;-0.200;2023-12-07T05:27:58;11.07;;;6.22;;
35909;SDS011;22004;49.120;-0.200;2023-12-07T05:30:24;9.32;;;6.00;;
35909;SDS011;22004;49.120;-0.200;2023-12-07T05:32:49;12.05;;;6.00;;
35909;SDS011;22004;49.120;-0.200;2023-12-07T05:35:15;10.13;;;5.95;;
35909;SDS011;22004;49.120;-0.200;2023-12-07T05:37:41;12.50;;;6.68;;
35909;SDS011;22004;49.120;-0.200;2023-12-07T05:40:06;11.45;;;5.70;;
35909;SDS011;22004;49.120;-0.200;2023-12-07T05:42:32;11.55;;;5.72;;
35909;SDS011;22004;49.120;-0.200;2023-12-07T05:44:58;11.73;;;5.43;;
35909;SDS011;22004;49.120;-0.200;2023-12-07T05:47:24;8.70;;;5.50;;
35909;SDS011;22004;49.120;-0.200;2023-12-07T05:49:49;11.80;;;5.70;;
35909;SDS011;22004;49.120;-0.200;2023-12-07T05:52:15;10.40;;;5.35;;
35909;SDS011;22004;49.120;-0.200;2023-12-07T05:54:40;13.45;;;5.70;;
35909;SDS011;22004;49.120;-0.200;2023-12-07T05:57:10;14.00;;;4.90;;
35909;SDS011;22004;49.120;-0.200;2023-12-07T05:59:39;9.70;;;5.30;;
35909;SDS011;22004;49.120;-0.200;2023-12-07T06:02:04;14.20;;;5.30;;
35909;SDS011;22004;49.120;-0.200;2023-12-07T06:04:30;10.00;;;4.90;;
35909;SDS011;22004;49.120;-0.200;2023-12-07T06:06:55;9.48;;;4.53;;
35909;SDS011;22004;49.120;-0.200;2023-12-07T06:09:21;11.35;;;5.00;;
35909;SDS011;22004;49.120;-0.200;2023-12-07T06:11:47;9.70;;;5.72;;
35909;SDS011;22004;49.120;-0.200;2023-12-07T06:14:12;17.33;;;6.63;;
35909;SDS011;22004;49.120;-0.200;2023-12-07T06:16:38;13.18;;;5.95;;
35909;SDS011;22004;49.120;-0.200;2023-12-07T06:19:03;11.60;;;5.80;;
35909;SDS011;22004;49.120;-0.200;2023-12-07T06:21:29;19.42;;;8.93;;
35909;SDS011;22004;49.120;-0.200;2023-12-07T06:23:55;14.65;;;6.35;;
35909;SDS011;22004;49.120;-0.200;2023-12-07T06:26:21;11.00;;;5.53;;
35909;SDS011;22004;49.120;-0.200;2023-12-07T06:28:46;9.55;;;4.82;;
35909;SDS011;22004;49.120;-0.200;2023-12-07T06:31:12;11.32;;;4.93;;
35909;SDS011;22004;49.120;-0.200;2023-12-07T06:33:37;12.45;;;4.95;;
35909;SDS011;22004;49.120;-0.200;2023-12-07T06:36:02;10.48;;;4.78;;
35909;SDS011;22004;49.120;-0.200;2023-12-07T06:38:28;9.43;;;4.63;;
35909;SDS011;22004;49.120;-0.200;2023-12-07T06:40:54;10.05;;;4.35;;
35909;SDS011;22004;49.120;-0.200;2023-12-07T06:43:21;9.13;;;4.18;;
35909;SDS011;22004;49.120;-0.200;2023-12-07T06:45:47;8.35;;;4.22;;
35909;SDS011;22004;49.120;-0.200;2023-12-07T06:48:12;13.38;;;4.68;;
35909;SDS011;22004;49.120;-0.200;2023-12-07T06:50:38;12.20;;;4.53;;
35909;SDS011;22004;49.120;-0.200;2023-12-07T06:53:04;15.10;;;5.10;;
35909;SDS011;22004;49.120;-0.200;2023-12-07T06:55:29;7.75;;;4.03;;
35909;SDS011;22004;49.120;-0.200;2023-12-07T06:57:54;10.63;;;3.67;;
35909;SDS011;22004;49.120;-0.200;2023-12-07T07:00:20;9.43;;;3.47;;
35909;SDS011;22004;49.120;-0.200;2023-12-07T07:02:46;9.70;;;3.90;;
35909;SDS011;22004;49.120;-0.200;2023-12-07T07:05:11;9.27;;;3.53;;
35909;SDS011;22004;49.120;-0.200;2023-12-07T07:07:37;6.38;;;3.58;;
35909;SDS011;22004;49.120;-0.200;2023-12-07T07:10:03;12.57;;;4.10;;
35909;SDS011;22004;49.120;-0.200;2023-12-07T07:12:29;10.02;;;3.85;;
35909;SDS011;22004;49.120;-0.200;2023-12-07T07:14:54;8.13;;;3.33;;
35909;SDS011;22004;49.120;-0.200;2023-12-07T07:17:20;7.13;;;3.58;;
35909;SDS011;22004;49.120;-0.200;2023-12-07T07:19:45;11.57;;;4.03;;
35909;SDS011;22004;49.120;-0.200;2023-12-07T07:22:11;11.68;;;3.67;;
35909;SDS011;22004;49.120;-0.200;2023-12-07T07:24:36;8.73;;;3.92;;
35909;SDS011;22004;49.120;-0.200;2023-12-07T07:27:01;9.50;;;3.75;;
35909;SDS011;22004;49.120;-0.200;2023-12-07T07:29:27;6.85;;;3.28;;
35909;SDS011;22004;49.120;-0.200;2023-12-07T07:31:53;9.52;;;3.45;;
35909;SDS011;22004;49.120;-0.200;2023-12-07T07:34:18;6.30;;;2.95;;
35909;SDS011;22004;49.120;-0.200;2023-12-07T07:36:44;8.55;;;3.10;;
35909;SDS011;22004;49.120;-0.200;2023-12-07T07:39:09;10.63;;;3.38;;
35909;SDS011;22004;49.120;-0.200;2023-12-07T18:21:13;8.40;;;4.22;;
35909;SDS011;22004;49.120;-0.200;2023-12-07T18:23:39;7.22;;;3.83;;
35909;SDS011;22004;49.120;-0.200;2023-12-07T18:26:08;11.02;;;3.50;;
35909;SDS011;22004;49.120;-0.200;2023-12-07T18:28:35;8.52;;;4.25;;
35909;SDS011;22004;49.120;-0.200;2023-12-07T18:31:01;14.48;;;4.07;;
35909;SDS011;22004;49.120;-0.200;2023-12-07T18:33:26;18.35;;;3.97;;
35909;SDS011;22004;49.120;-0.200;2023-12-07T18:35:52;10.45;;;4.53;;
35909;SDS011;22004;49.120;-0.200;2023-12-07T18:38:17;12.63;;;4.60;;
35909;SDS011;22004;49.120;-0.200;2023-12-07T18:40:44;10.98;;;5.60;;
35909;SDS011;22004;49.120;-0.200;2023-12-07T18:43:10;8.63;;;4.28;;
35909;SDS011;22004;49.120;-0.200;2023-12-07T18:45:39;8.20;;;4.65;;
35909;SDS011;22004;49.120;-0.200;2023-12-07T18:48:05;21.20;;;3.92;;
35909;SDS011;22004;49.120;-0.200;2023-12-07T18:50:32;12.48;;;4.50;;
35909;SDS011;22004;49.120;-0.200;2023-12-07T18:52:57;13.07;;;4.40;;
35909;SDS011;22004;49.120;-0.200;2023-12-07T18:55:22;15.18;;;4.10;;
35909;SDS011;22004;49.120;-0.200;2023-12-07T18:57:48;16.67;;;4.65;;
35909;SDS011;22004;49.120;-0.200;2023-12-07T19:00:15;11.23;;;4.53;;
35909;SDS011;22004;49.120;-0.200;2023-12-07T19:02:41;14.30;;;4.40;;
35909;SDS011;22004;49.120;-0.200;2023-12-07T19:05:10;19.25;;;4.90;;
35909;SDS011;22004;49.120;-0.200;2023-12-07T19:07:36;22.20;;;4.75;;
35909;SDS011;22004;49.120;-0.200;2023-12-07T19:10:02;25.85;;;5.53;;
35909;SDS011;22004;49.120;-0.200;2023-12-07T19:12:28;22.40;;;6.18;;
35909;SDS011;22004;49.120;-0.200;2023-12-07T19:14:53;29.98;;;5.80;;
35909;SDS011;22004;49.120;-0.200;2023-12-07T19:17:19;16.20;;;6.40;;
35909;SDS011;22004;49.120;-0.200;2023-12-07T19:19:45;18.52;;;6.60;;
35909;SDS011;22004;49.120;-0.200;2023-12-07T19:22:11;16.17;;;5.20;;
35909;SDS011;22004;49.120;-0.200;2023-12-07T19:24:36;20.83;;;7.20;;
35909;SDS011;22004;49.120;-0.200;2023-12-07T19:27:01;12.65;;;5.15;;
35909;SDS011;22004;49.120;-0.200;2023-12-07T19:29:27;15.40;;;5.35;;
35909;SDS011;22004;49.120;-0.200;2023-12-07T19:31:52;10.90;;;5.05;;
35909;SDS011;22004;49.120;-0.200;2023-12-07T19:34:18;9.05;;;5.90;;
35909;SDS011;22004;49.120;-0.200;2023-12-07T19:36:46;12.32;;;5.35;;
35909;SDS011;22004;49.120;-0.200;2023-12-07T19:39:13;12.27;;;5.07;;
35909;SDS011;22004;49.120;-0.200;2023-12-07T19:41:42;24.25;;;5.32;;
35909;SDS011;22004;49.120;-0.200;2023-12-07T19:44:12;11.50;;;5.22;;
35909;SDS011;22004;49.120;-0.200;2023-12-07T19:46:38;13.45;;;5.07;;
35909;SDS011;22004;49.120;-0.200;2023-12-07T19:49:03;13.38;;;5.45;;
35909;SDS011;22004;49.120;-0.200;2023-12-07T19:51:30;11.60;;;3.90;;
35909;SDS011;22004;49.120;-0.200;2023-12-07T19:53:56;9.77;;;5.03;;
35909;SDS011;22004;49.120;-0.200;2023-12-07T19:56:25;14.38;;;4.95;;
35909;SDS011;22004;49.120;-0.200;2023-12-07T19:58:50;12.75;;;6.10;;
35909;SDS011;22004;49.120;-0.200;2023-12-07T20:01:15;13.00;;;5.78;;
35909;SDS011;22004;49.120;-0.200;2023-12-07T20:03:47;15.60;;;5.70;;
35909;SDS011;22004;49.120;-0.200;2023-12-07T20:06:15;13.82;;;5.15;;
35909;SDS011;22004;49.120;-0.200;2023-12-07T20:08:41;11.25;;;5.20;;
35909;SDS011;22004;49.120;-0.200;2023-12-07T20:11:06;9.85;;;4.88;;
35909;SDS011;22004;49.120;-0.200;2023-12-07T20:13:32;12.98;;;8.10;;
35909;SDS011;22004;49.120;-0.200;2023-12-07T20:15:58;8.70;;;5.43;;
35909;SDS011;22004;49.120;-0.200;2023-12-07T20:18:27;10.43;;;5.15;;
35909;SDS011;22004;49.120;-0.200;2023-12-07T20:20:55;6.65;;;4.65;;
35909;SDS011;22004;49.120;-0.200;2023-12-07T20:23:23;18.10;;;11.55;;
35909;SDS011;22004;49.120;-0.200;2023-12-07T20:25:50;12.93;;;5.80;;
35909;SDS011;22004;49.120;-0.200;2023-12-07T20:28:16;12.77;;;6.93;;
35909;SDS011;22004;49.120;-0.200;2023-12-07T20:30:43;14.05;;;7.20;;
35909;SDS011;22004;49.120;-0.200;2023-12-07T20:33:08;11.82;;;6.68;;
35909;SDS011;22004;49.120;-0.200;2023-12-07T20:35:33;11.75;;;6.05;;
35909;SDS011;22004;49.120;-0.200;2023-12-07T20:37:59;11.02;;;6.53;;
35909;SDS011;22004;49.120;-0.200;2023-12-07T20:40:28;9.68;;;5.68;;
35909;SDS011;22004;49.120;-0.200;2023-12-07T20:42:53;9.32;;;5.40;;
35909;SDS011;22004;49.120;-0.200;2023-12-07T20:45:30;8.93;;;6.22;;
35909;SDS011;22004;49.120;-0.200;2023-12-07T20:47:56;11.30;;;4.97;;
35909;SDS011;22004;49.120;-0.200;2023-12-07T20:50:22;10.45;;;5.00;;
35909;SDS011;22004;49.120;-0.200;2023-12-07T20:52:48;7.95;;;5.03;;
35909;SDS011;22004;49.120;-0.200;2023-12-07T20:55:14;9.57;;;5.75;;
35909;SDS011;22004;49.120;-0.200;2023-12-07T20:57:42;16.30;;;9.27;;
35909;SDS011;22004;49.120;-0.200;2023-12-07T21:00:09;7.30;;;4.50;;
35909;SDS011;22004;49.120;-0.200;2023-12-07T21:02:35;12.35;;;6.82;;
35909;SDS011;22004;49.120;-0.200;2023-12-07T21:05:02;32.53;;;15.07;;
35909;SDS011;22004;49.120;-0.200;2023-12-07T21:07:28;15.00;;;7.55;;
35909;SDS011;22004;49.120;-0.200;2023-12-07T21:09:53;8.63;;;5.50;;
35909;SDS011;22004;49.120;-0.200;2023-12-07T21:12:18;9.75;;;5.75;;
35909;SDS011;22004;49.120;-0.200;2023-12-07T21:14:48;9.13;;;5.50;;
35909;SDS011;22004;49.120;-0.200;2023-12-07T21:17:18;10.80;;;6.00;;
35909;SDS011;22004;49.120;-0.200;2023-12-07T21:19:44;9.60;;;5.93;;
35909;SDS011;22004;49.120;-0.200;2023-12-07T21:22:10;10.68;;;6.65;;
35909;SDS011;22004;49.120;-0.200;2023-12-07T21:24:36;11.15;;;6.55;;
35909;SDS011;22004;49.120;-0.200;2023-12-07T21:27:03;10.82;;;6.55;;
35909;SDS011;22004;49.120;-0.200;2023-12-07T21:29:28;11.23;;;6.43;;
35909;SDS011;22004;49.120;-0.200;2023-12-07T21:31:54;15.13;;;8.20;;
35909;SDS011;22004;49.120;-0.200;2023-12-07T21:34:19;11.10;;;6.22;;
35909;SDS011;22004;49.120;-0.200;2023-12-07T21:36:44;11.00;;;5.85;;
35909;SDS011;22004;49.120;-0.200;2023-12-07T21:39:11;8.73;;;5.72;;
35909;SDS011;22004;49.120;-0.200;2023-12-07T21:41:37;10.80;;;5.70;;
35909;SDS011;22004;49.120;-0.200;2023-12-07T21:44:04;9.52;;;5.63;;
35909;SDS011;22004;49.120;-0.200;2023-12-07T21:46:29;14.95;;;6.10;;
35909;SDS011;22004;49.120;-0.200;2023-12-07T21:48:54;8.02;;;5.65;;
35909;SDS011;22004;49.120;-0.200;2023-12-07T21:51:20;9.07;;;5.40;;
35909;SDS011;22004;49.120;-0.200;2023-12-07T21:53:45;11.23;;;5.85;;
35909;SDS011;22004;49.120;-0.200;2023-12-07T21:56:11;9.93;;;5.93;;
35909;SDS011;22004;49.120;-0.200;2023-12-07T21:58:39;7.97;;;5.43;;
35909;SDS011;22004;49.120;-0.200;2023-12-07T22:01:05;7.85;;;5.30;;
35909;SDS011;22004;49.120;-0.200;2023-12-07T22:03:31;9.18;;;5.28;;
35909;SDS011;22004;49.120;-0.200;2023-12-07T22:05:56;12.15;;;6.40;;
35909;SDS011;22004;49.120;-0.200;2023-12-07T22:08:21;9.35;;;5.32;;
35909;SDS011;22004;49.120;-0.200;2023-12-07T22:10:47;9.23;;;5.80;;
